sensor_id;sensor_type;location;lat;lon;timestamp;P1;durP1;ratioP1;P2;durP2;ratioP2
64903;SDS011;51401;48.882;12.598;2023-04-09T00:00:24;10.88;;;7.35;;
64903;SDS011;51401;48.882;12.598;2023-04-09T00:02:49;11.20;;;7.30;;
64903;SDS011;51401;48.882;12.598;2023-04-09T00:05:14;11.63;;;7.45;;
64903;SDS011;51401;48.882;12.598;2023-04-09T00:07:40;10.77;;;7.63;;
64903;SDS011;51401;48.882;12.598;2023-04-09T00:10:05;10.13;;;7.00;;
64903;SDS011;51401;48.882;12.598;2023-04-09T00:12:31;10.55;;;7.40;;
64903;SDS011;51401;48.882;12.598;2023-04-09T00:14:56;12.80;;;8.13;;
64903;SDS011;51401;48.882;12.598;2023-04-09T00:17:22;11.25;;;7.75;;
64903;SDS011;51401;48.882;12.598;2023-04-09T00:19:47;10.90;;;7.00;;
64903;SDS011;51401;48.882;12.598;2023-04-09T00:22:12;10.80;;;7.13;;
64903;SDS011;51401;48.882;12.598;2023-04-09T00:24:38;11.73;;;6.95;;
64903;SDS011;51401;48.882;12.598;2023-04-09T00:27:04;12.77;;;7.72;;
64903;SDS011;51401;48.882;12.598;2023-04-09T00:29:29;12.38;;;7.38;;
64903;SDS011;51401;48.882;12.598;2023-04-09T00:31:55;12.07;;;7.57;;
64903;SDS011;51401;48.882;12.598;2023-04-09T00:34:20;12.38;;;8.07;;
64903;SDS011;51401;48.882;12.598;2023-04-09T00:36:46;13.02;;;7.32;;
64903;SDS011;51401;48.882;12.598;2023-04-09T00:39:11;12.07;;;7.75;;
64903;SDS011;51401;48.882;12.598;2023-04-09T00:41:36;13.23;;;7.60;;
64903;SDS011;51401;48.882;12.598;2023-04-09T00:44:02;11.75;;;7.05;;
64903;SDS011;51401;48.882;12.598;2023-04-09T00:46:27;13.60;;;8.40;;
64903;SDS011;51401;48.882;12.598;2023-04-09T00:48:52;14.60;;;7.78;;
64903;SDS011;51401;48.882;12.598;2023-04-09T00:51:18;11.95;;;7.15;;
64903;SDS011;51401;48.882;12.598;2023-04-09T00:53:43;12.13;;;7.53;;
64903;SDS011;51401;48.882;12.598;2023-04-09T00:56:09;12.50;;;7.63;;
64903;SDS011;51401;48.882;12.598;2023-04-09T00:58:36;13.18;;;7.82;;
64903;SDS011;51401;48.882;12.598;2023-04-09T01:01:01;11.93;;;7.43;;
64903;SDS011;51401;48.882;12.598;2023-04-09T01:03:26;13.07;;;7.82;;
64903;SDS011;51401;48.882;12.598;2023-04-09T01:05:53;11.40;;;7.13;;
64903;SDS011;51401;48.882;12.598;2023-04-09T01:08:50;13.80;;;8.10;;
64903;SDS011;51401;48.882;12.598;2023-04-09T01:11:31;10.88;;;7.03;;
64903;SDS011;51401;48.882;12.598;2023-04-09T01:16:46;10.52;;;6.68;;
64903;SDS011;51401;48.882;12.598;2023-04-09T01:23:10;13.27;;;8.10;;
64903;SDS011;51401;48.882;12.598;2023-04-09T01:25:36;12.57;;;7.10;;
64903;SDS011;51401;48.882;12.598;2023-04-09T01:28:22;11.55;;;7.05;;
64903;SDS011;51401;48.882;12.598;2023-04-09T01:31:25;11.52;;;7.22;;
64903;SDS011;51401;48.882;12.598;2023-04-09T01:33:43;12.02;;;7.90;;
64903;SDS011;51401;48.882;12.598;2023-04-09T01:36:09;13.02;;;7.82;;
64903;SDS011;51401;48.882;12.598;2023-04-09T01:38:36;12.65;;;7.15;;
64903;SDS011;51401;48.882;12.598;2023-04-09T01:41:05;10.40;;;6.72;;
64903;SDS011;51401;48.882;12.598;2023-04-09T01:43:31;13.32;;;7.93;;
64903;SDS011;51401;48.882;12.598;2023-04-09T01:45:58;13.70;;;7.40;;
64903;SDS011;51401;48.882;12.598;2023-04-09T01:48:25;12.50;;;8.35;;
64903;SDS011;51401;48.882;12.598;2023-04-09T01:50:52;11.80;;;7.38;;
64903;SDS011;51401;48.882;12.598;2023-04-09T01:53:18;12.60;;;6.75;;
64903;SDS011;51401;48.882;12.598;2023-04-09T01:55:43;11.75;;;7.28;;
64903;SDS011;51401;48.882;12.598;2023-04-09T01:58:08;15.77;;;8.85;;
64903;SDS011;51401;48.882;12.598;2023-04-09T02:00:39;15.00;;;7.90;;
64903;SDS011;51401;48.882;12.598;2023-04-09T02:03:15;12.68;;;8.55;;
64903;SDS011;51401;48.882;12.598;2023-04-09T02:05:45;14.65;;;8.15;;
64903;SDS011;51401;48.882;12.598;2023-04-09T02:08:18;14.32;;;8.52;;
64903;SDS011;51401;48.882;12.598;2023-04-09T02:10:46;14.20;;;8.40;;
64903;SDS011;51401;48.882;12.598;2023-04-09T02:13:18;11.88;;;7.68;;
64903;SDS011;51401;48.882;12.598;2023-04-09T02:15:44;13.43;;;8.13;;
64903;SDS011;51401;48.882;12.598;2023-04-09T02:20:48;13.55;;;8.20;;
64903;SDS011;51401;48.882;12.598;2023-04-09T02:23:14;13.60;;;8.65;;
64903;SDS011;51401;48.882;12.598;2023-04-09T02:25:40;13.55;;;8.13;;
64903;SDS011;51401;48.882;12.598;2023-04-09T02:28:05;11.80;;;7.68;;
64903;SDS011;51401;48.882;12.598;2023-04-09T02:30:30;15.82;;;8.68;;
64903;SDS011;51401;48.882;12.598;2023-04-09T02:32:56;14.02;;;8.70;;
64903;SDS011;51401;48.882;12.598;2023-04-09T02:35:21;15.65;;;8.82;;
64903;SDS011;51401;48.882;12.598;2023-04-09T02:37:46;14.80;;;8.15;;
64903;SDS011;51401;48.882;12.598;2023-04-09T02:40:12;13.55;;;8.60;;
64903;SDS011;51401;48.882;12.598;2023-04-09T02:42:37;13.95;;;7.88;;
64903;SDS011;51401;48.882;12.598;2023-04-09T02:45:02;16.00;;;8.77;;
64903;SDS011;51401;48.882;12.598;2023-04-09T02:47:28;14.75;;;8.43;;
64903;SDS011;51401;48.882;12.598;2023-04-09T02:49:54;14.77;;;9.05;;
64903;SDS011;51401;48.882;12.598;2023-04-09T02:52:19;15.18;;;8.75;;
64903;SDS011;51401;48.882;12.598;2023-04-09T02:54:48;15.05;;;8.55;;
64903;SDS011;51401;48.882;12.598;2023-04-09T02:57:13;12.02;;;8.10;;
64903;SDS011;51401;48.882;12.598;2023-04-09T02:59:38;14.77;;;9.00;;
64903;SDS011;51401;48.882;12.598;2023-04-09T03:02:04;13.88;;;8.25;;
64903;SDS011;51401;48.882;12.598;2023-04-09T03:04:29;11.80;;;8.60;;
64903;SDS011;51401;48.882;12.598;2023-04-09T03:06:55;14.00;;;8.45;;
64903;SDS011;51401;48.882;12.598;2023-04-09T03:09:20;14.57;;;8.07;;
64903;SDS011;51401;48.882;12.598;2023-04-09T03:11:45;14.98;;;9.20;;
64903;SDS011;51401;48.882;12.598;2023-04-09T03:14:11;15.88;;;9.32;;
64903;SDS011;51401;48.882;12.598;2023-04-09T03:16:36;13.85;;;8.45;;
64903;SDS011;51401;48.882;12.598;2023-04-09T03:19:01;16.02;;;8.65;;
64903;SDS011;51401;48.882;12.598;2023-04-09T03:21:26;15.10;;;9.65;;
64903;SDS011;51401;48.882;12.598;2023-04-09T03:23:52;13.45;;;8.65;;
64903;SDS011;51401;48.882;12.598;2023-04-09T03:26:17;14.65;;;8.43;;
64903;SDS011;51401;48.882;12.598;2023-04-09T03:28:43;13.88;;;7.55;;
64903;SDS011;51401;48.882;12.598;2023-04-09T03:31:08;14.38;;;8.52;;
64903;SDS011;51401;48.882;12.598;2023-04-09T03:33:33;13.63;;;8.38;;
64903;SDS011;51401;48.882;12.598;2023-04-09T03:35:59;13.13;;;8.40;;
64903;SDS011;51401;48.882;12.598;2023-04-09T03:38:24;10.85;;;7.28;;
64903;SDS011;51401;48.882;12.598;2023-04-09T03:40:49;13.95;;;7.78;;
64903;SDS011;51401;48.882;12.598;2023-04-09T03:43:15;13.98;;;8.45;;
64903;SDS011;51401;48.882;12.598;2023-04-09T03:45:40;12.93;;;8.45;;
64903;SDS011;51401;48.882;12.598;2023-04-09T03:48:05;12.98;;;8.23;;
64903;SDS011;51401;48.882;12.598;2023-04-09T03:50:31;15.82;;;8.88;;
64903;SDS011;51401;48.882;12.598;2023-04-09T03:53:01;13.77;;;9.13;;
64903;SDS011;51401;48.882;12.598;2023-04-09T03:55:26;15.50;;;8.93;;
64903;SDS011;51401;48.882;12.598;2023-04-09T03:57:52;14.98;;;8.43;;
64903;SDS011;51401;48.882;12.598;2023-04-09T04:00:17;12.13;;;7.90;;
64903;SDS011;51401;48.882;12.598;2023-04-09T04:02:42;14.70;;;8.85;;
64903;SDS011;51401;48.882;12.598;2023-04-09T04:05:07;12.20;;;8.02;;
64903;SDS011;51401;48.882;12.598;2023-04-09T04:07:33;13.95;;;9.00;;
64903;SDS011;51401;48.882;12.598;2023-04-09T04:09:58;13.68;;;8.55;;
64903;SDS011;51401;48.882;12.598;2023-04-09T04:12:23;13.20;;;8.75;;
64903;SDS011;51401;48.882;12.598;2023-04-09T04:14:48;12.18;;;8.13;;
64903;SDS011;51401;48.882;12.598;2023-04-09T04:17:14;15.13;;;8.48;;
64903;SDS011;51401;48.882;12.598;2023-04-09T04:19:39;16.10;;;9.23;;
64903;SDS011;51401;48.882;12.598;2023-04-09T04:22:04;12.88;;;8.35;;
64903;SDS011;51401;48.882;12.598;2023-04-09T04:24:30;13.43;;;8.65;;
64903;SDS011;51401;48.882;12.598;2023-04-09T04:26:55;12.35;;;8.23;;
64903;SDS011;51401;48.882;12.598;2023-04-09T04:29:20;14.93;;;8.77;;
64903;SDS011;51401;48.882;12.598;2023-04-09T04:31:46;11.57;;;8.32;;
64903;SDS011;51401;48.882;12.598;2023-04-09T04:34:11;14.98;;;8.27;;
64903;SDS011;51401;48.882;12.598;2023-04-09T04:36:36;12.35;;;8.38;;
64903;SDS011;51401;48.882;12.598;2023-04-09T04:39:02;11.48;;;8.05;;
64903;SDS011;51401;48.882;12.598;2023-04-09T04:41:27;13.48;;;8.65;;
64903;SDS011;51401;48.882;12.598;2023-04-09T04:43:53;14.13;;;9.00;;
64903;SDS011;51401;48.882;12.598;2023-04-09T04:46:18;14.57;;;8.65;;
64903;SDS011;51401;48.882;12.598;2023-04-09T04:48:44;14.57;;;8.00;;
64903;SDS011;51401;48.882;12.598;2023-04-09T04:51:09;12.65;;;8.15;;
64903;SDS011;51401;48.882;12.598;2023-04-09T04:53:35;13.82;;;8.85;;
64903;SDS011;51401;48.882;12.598;2023-04-09T04:56:00;13.55;;;8.90;;
64903;SDS011;51401;48.882;12.598;2023-04-09T04:58:25;12.40;;;7.75;;
64903;SDS011;51401;48.882;12.598;2023-04-09T05:00:51;12.95;;;7.93;;
64903;SDS011;51401;48.882;12.598;2023-04-09T05:03:16;11.60;;;7.75;;
64903;SDS011;51401;48.882;12.598;2023-04-09T05:05:41;12.77;;;7.95;;
64903;SDS011;51401;48.882;12.598;2023-04-09T05:08:07;13.38;;;8.73;;
64903;SDS011;51401;48.882;12.598;2023-04-09T05:10:32;12.95;;;7.93;;
64903;SDS011;51401;48.882;12.598;2023-04-09T05:12:57;12.63;;;8.45;;
64903;SDS011;51401;48.882;12.598;2023-04-09T05:15:23;13.13;;;8.52;;
64903;SDS011;51401;48.882;12.598;2023-04-09T05:17:48;14.10;;;8.73;;
64903;SDS011;51401;48.882;12.598;2023-04-09T05:20:14;11.77;;;8.73;;
64903;SDS011;51401;48.882;12.598;2023-04-09T05:22:39;15.30;;;9.15;;
64903;SDS011;51401;48.882;12.598;2023-04-09T05:25:05;15.23;;;10.20;;
64903;SDS011;51401;48.882;12.598;2023-04-09T05:27:31;15.98;;;9.32;;
64903;SDS011;51401;48.882;12.598;2023-04-09T05:29:56;11.80;;;7.97;;
64903;SDS011;51401;48.882;12.598;2023-04-09T05:32:22;13.75;;;9.07;;
64903;SDS011;51401;48.882;12.598;2023-04-09T05:34:47;15.50;;;9.00;;
64903;SDS011;51401;48.882;12.598;2023-04-09T05:37:12;15.63;;;9.70;;
64903;SDS011;51401;48.882;12.598;2023-04-09T05:39:38;14.32;;;9.30;;
64903;SDS011;51401;48.882;12.598;2023-04-09T05:42:03;16.17;;;9.73;;
64903;SDS011;51401;48.882;12.598;2023-04-09T05:44:28;15.57;;;9.80;;
64903;SDS011;51401;48.882;12.598;2023-04-09T05:46:54;14.65;;;8.85;;
64903;SDS011;51401;48.882;12.598;2023-04-09T05:49:19;16.85;;;9.40;;
64903;SDS011;51401;48.882;12.598;2023-04-09T05:51:44;15.38;;;9.82;;
64903;SDS011;51401;48.882;12.598;2023-04-09T05:54:10;15.40;;;9.35;;
64903;SDS011;51401;48.882;12.598;2023-04-09T05:56:35;18.27;;;9.90;;
64903;SDS011;51401;48.882;12.598;2023-04-09T05:59:01;15.23;;;9.95;;
64903;SDS011;51401;48.882;12.598;2023-04-09T06:01:26;15.93;;;9.52;;
64903;SDS011;51401;48.882;12.598;2023-04-09T06:03:51;14.38;;;9.35;;
64903;SDS011;51401;48.882;12.598;2023-04-09T06:06:17;17.52;;;9.95;;
64903;SDS011;51401;48.882;12.598;2023-04-09T06:08:42;16.55;;;11.73;;
64903;SDS011;51401;48.882;12.598;2023-04-09T06:11:09;16.67;;;10.55;;
64903;SDS011;51401;48.882;12.598;2023-04-09T06:13:35;18.55;;;11.13;;
64903;SDS011;51401;48.882;12.598;2023-04-09T06:16:02;18.05;;;10.68;;
64903;SDS011;51401;48.882;12.598;2023-04-09T06:18:28;14.55;;;10.13;;
64903;SDS011;51401;48.882;12.598;2023-04-09T06:21:03;17.43;;;10.33;;
64903;SDS011;51401;48.882;12.598;2023-04-09T06:23:30;18.60;;;11.20;;
64903;SDS011;51401;48.882;12.598;2023-04-09T06:25:56;17.83;;;10.20;;
64903;SDS011;51401;48.882;12.598;2023-04-09T06:28:21;16.85;;;11.45;;
64903;SDS011;51401;48.882;12.598;2023-04-09T06:30:47;16.77;;;10.43;;
64903;SDS011;51401;48.882;12.598;2023-04-09T06:33:13;19.90;;;10.95;;
64903;SDS011;51401;48.882;12.598;2023-04-09T06:35:38;21.08;;;11.15;;
64903;SDS011;51401;48.882;12.598;2023-04-09T06:38:03;18.80;;;11.87;;
64903;SDS011;51401;48.882;12.598;2023-04-09T06:40:28;20.77;;;11.77;;
64903;SDS011;51401;48.882;12.598;2023-04-09T06:42:54;18.27;;;10.60;;
64903;SDS011;51401;48.882;12.598;2023-04-09T06:45:19;20.52;;;12.48;;
64903;SDS011;51401;48.882;12.598;2023-04-09T06:47:45;20.42;;;11.60;;
64903;SDS011;51401;48.882;12.598;2023-04-09T06:50:10;19.40;;;11.68;;
64903;SDS011;51401;48.882;12.598;2023-04-09T06:52:35;19.52;;;11.73;;
64903;SDS011;51401;48.882;12.598;2023-04-09T06:55:00;20.30;;;12.10;;
64903;SDS011;51401;48.882;12.598;2023-04-09T06:57:26;18.73;;;12.48;;
64903;SDS011;51401;48.882;12.598;2023-04-09T06:59:51;24.10;;;13.00;;
64903;SDS011;51401;48.882;12.598;2023-04-09T07:02:16;23.23;;;13.68;;
64903;SDS011;51401;48.882;12.598;2023-04-09T07:04:42;23.60;;;14.38;;
64903;SDS011;51401;48.882;12.598;2023-04-09T07:07:07;22.67;;;13.15;;
64903;SDS011;51401;48.882;12.598;2023-04-09T07:09:32;24.27;;;13.90;;
64903;SDS011;51401;48.882;12.598;2023-04-09T07:11:58;28.92;;;16.05;;
64903;SDS011;51401;48.882;12.598;2023-04-09T07:14:23;27.13;;;14.52;;
64903;SDS011;51401;48.882;12.598;2023-04-09T07:16:48;23.85;;;13.27;;
64903;SDS011;51401;48.882;12.598;2023-04-09T07:19:14;23.80;;;15.13;;
64903;SDS011;51401;48.882;12.598;2023-04-09T07:21:42;24.10;;;14.07;;
64903;SDS011;51401;48.882;12.598;2023-04-09T07:24:13;26.13;;;14.55;;
64903;SDS011;51401;48.882;12.598;2023-04-09T07:26:44;21.73;;;12.75;;
64903;SDS011;51401;48.882;12.598;2023-04-09T07:29:09;21.98;;;14.20;;
64903;SDS011;51401;48.882;12.598;2023-04-09T07:31:34;26.20;;;14.60;;
64903;SDS011;51401;48.882;12.598;2023-04-09T07:34:00;25.77;;;14.47;;
64903;SDS011;51401;48.882;12.598;2023-04-09T07:36:26;25.60;;;14.40;;
64903;SDS011;51401;48.882;12.598;2023-04-09T07:38:54;24.15;;;13.75;;
64903;SDS011;51401;48.882;12.598;2023-04-09T07:41:20;23.55;;;12.73;;
64903;SDS011;51401;48.882;12.598;2023-04-09T07:43:45;23.42;;;13.05;;
64903;SDS011;51401;48.882;12.598;2023-04-09T07:46:11;24.02;;;13.60;;
64903;SDS011;51401;48.882;12.598;2023-04-09T07:48:45;29.00;;;17.63;;
64903;SDS011;51401;48.882;12.598;2023-04-09T07:51:11;23.05;;;13.15;;
64903;SDS011;51401;48.882;12.598;2023-04-09T07:53:36;18.65;;;12.18;;
64903;SDS011;51401;48.882;12.598;2023-04-09T07:56:01;22.65;;;12.45;;
64903;SDS011;51401;48.882;12.598;2023-04-09T07:58:27;23.50;;;13.73;;
64903;SDS011;51401;48.882;12.598;2023-04-09T08:00:52;22.55;;;13.38;;
64903;SDS011;51401;48.882;12.598;2023-04-09T08:03:18;21.30;;;13.23;;
64903;SDS011;51401;48.882;12.598;2023-04-09T08:05:43;21.20;;;13.20;;
64903;SDS011;51401;48.882;12.598;2023-04-09T08:08:09;19.27;;;12.38;;
64903;SDS011;51401;48.882;12.598;2023-04-09T08:10:34;22.50;;;13.68;;
64903;SDS011;51401;48.882;12.598;2023-04-09T08:13:00;22.88;;;13.88;;
64903;SDS011;51401;48.882;12.598;2023-04-09T08:15:25;21.57;;;13.03;;
64903;SDS011;51401;48.882;12.598;2023-04-09T08:17:51;22.00;;;13.15;;
64903;SDS011;51401;48.882;12.598;2023-04-09T08:20:16;22.90;;;13.32;;
64903;SDS011;51401;48.882;12.598;2023-04-09T08:22:41;23.38;;;13.48;;
64903;SDS011;51401;48.882;12.598;2023-04-09T08:25:07;23.33;;;13.90;;
64903;SDS011;51401;48.882;12.598;2023-04-09T08:27:33;24.10;;;13.73;;
64903;SDS011;51401;48.882;12.598;2023-04-09T08:29:58;22.13;;;13.63;;
64903;SDS011;51401;48.882;12.598;2023-04-09T08:32:23;22.70;;;13.25;;
64903;SDS011;51401;48.882;12.598;2023-04-09T08:34:49;22.40;;;12.20;;
64903;SDS011;51401;48.882;12.598;2023-04-09T08:37:14;20.17;;;12.35;;
64903;SDS011;51401;48.882;12.598;2023-04-09T08:39:40;20.83;;;12.85;;
64903;SDS011;51401;48.882;12.598;2023-04-09T08:42:05;24.70;;;14.77;;
64903;SDS011;51401;48.882;12.598;2023-04-09T08:44:32;19.75;;;12.40;;
64903;SDS011;51401;48.882;12.598;2023-04-09T08:46:57;19.67;;;12.88;;
64903;SDS011;51401;48.882;12.598;2023-04-09T08:49:30;18.20;;;11.70;;
64903;SDS011;51401;48.882;12.598;2023-04-09T08:52:01;20.48;;;11.95;;
64903;SDS011;51401;48.882;12.598;2023-04-09T08:54:30;17.00;;;10.70;;
64903;SDS011;51401;48.882;12.598;2023-04-09T08:56:56;17.30;;;11.50;;
64903;SDS011;51401;48.882;12.598;2023-04-09T08:59:21;20.60;;;11.95;;
64903;SDS011;51401;48.882;12.598;2023-04-09T09:01:47;15.18;;;11.18;;
64903;SDS011;51401;48.882;12.598;2023-04-09T09:04:18;19.90;;;11.23;;
64903;SDS011;51401;48.882;12.598;2023-04-09T09:06:43;18.55;;;12.07;;
64903;SDS011;51401;48.882;12.598;2023-04-09T09:11:42;18.58;;;11.10;;
64903;SDS011;51401;48.882;12.598;2023-04-09T09:14:10;21.00;;;12.48;;
64903;SDS011;51401;48.882;12.598;2023-04-09T09:27:35;21.13;;;11.13;;
64903;SDS011;51401;48.882;12.598;2023-04-09T09:30:03;18.50;;;10.82;;
64903;SDS011;51401;48.882;12.598;2023-04-09T09:32:30;17.65;;;11.52;;
64903;SDS011;51401;48.882;12.598;2023-04-09T09:34:56;17.95;;;10.65;;
64903;SDS011;51401;48.882;12.598;2023-04-09T09:37:27;15.73;;;10.50;;
64903;SDS011;51401;48.882;12.598;2023-04-09T09:39:53;17.73;;;11.70;;
64903;SDS011;51401;48.882;12.598;2023-04-09T09:42:18;18.23;;;10.73;;
64903;SDS011;51401;48.882;12.598;2023-04-09T09:44:44;15.88;;;10.95;;
64903;SDS011;51401;48.882;12.598;2023-04-09T09:47:09;15.90;;;9.93;;
64903;SDS011;51401;48.882;12.598;2023-04-09T09:49:37;17.83;;;10.50;;
64903;SDS011;51401;48.882;12.598;2023-04-09T09:52:03;14.43;;;8.60;;
64903;SDS011;51401;48.882;12.598;2023-04-09T09:54:35;12.35;;;9.48;;
64903;SDS011;51401;48.882;12.598;2023-04-09T09:57:09;14.70;;;9.88;;
64903;SDS011;51401;48.882;12.598;2023-04-09T09:59:39;14.40;;;9.77;;
64903;SDS011;51401;48.882;12.598;2023-04-09T10:02:20;16.17;;;9.73;;
64903;SDS011;51401;48.882;12.598;2023-04-09T10:04:48;13.23;;;8.32;;
64903;SDS011;51401;48.882;12.598;2023-04-09T10:07:16;12.50;;;8.18;;
64903;SDS011;51401;48.882;12.598;2023-04-09T10:09:48;12.00;;;8.70;;
64903;SDS011;51401;48.882;12.598;2023-04-09T10:12:21;11.20;;;7.53;;
64903;SDS011;51401;48.882;12.598;2023-04-09T10:14:48;12.90;;;8.98;;
64903;SDS011;51401;48.882;12.598;2023-04-09T10:17:14;11.88;;;7.57;;
64903;SDS011;51401;48.882;12.598;2023-04-09T10:19:41;12.38;;;8.75;;
64903;SDS011;51401;48.882;12.598;2023-04-09T10:22:19;11.90;;;8.50;;
64903;SDS011;51401;48.882;12.598;2023-04-09T10:24:47;12.50;;;8.73;;
64903;SDS011;51401;48.882;12.598;2023-04-09T10:27:15;13.52;;;8.07;;
64903;SDS011;51401;48.882;12.598;2023-04-09T10:29:45;12.77;;;8.38;;
64903;SDS011;51401;48.882;12.598;2023-04-09T10:32:11;10.95;;;8.35;;
64903;SDS011;51401;48.882;12.598;2023-04-09T10:34:42;14.98;;;8.95;;
64903;SDS011;51401;48.882;12.598;2023-04-09T10:37:12;12.18;;;8.18;;
64903;SDS011;51401;48.882;12.598;2023-04-09T10:39:44;13.85;;;8.48;;
64903;SDS011;51401;48.882;12.598;2023-04-09T10:44:38;13.30;;;8.88;;
64903;SDS011;51401;48.882;12.598;2023-04-09T10:47:08;13.98;;;9.25;;
64903;SDS011;51401;48.882;12.598;2023-04-09T10:49:43;14.13;;;9.23;;
64903;SDS011;51401;48.882;12.598;2023-04-09T10:52:09;12.52;;;8.40;;
64903;SDS011;51401;48.882;12.598;2023-04-09T10:54:38;12.15;;;8.60;;
64903;SDS011;51401;48.882;12.598;2023-04-09T10:59:43;12.40;;;8.63;;
64903;SDS011;51401;48.882;12.598;2023-04-09T11:07:48;13.30;;;9.40;;
64903;SDS011;51401;48.882;12.598;2023-04-09T11:10:19;14.25;;;9.40;;
64903;SDS011;51401;48.882;12.598;2023-04-09T11:12:46;11.95;;;8.05;;
64903;SDS011;51401;48.882;12.598;2023-04-09T11:15:15;11.05;;;8.50;;
64903;SDS011;51401;48.882;12.598;2023-04-09T11:17:42;9.38;;;7.35;;
64903;SDS011;51401;48.882;12.598;2023-04-09T11:20:08;10.13;;;8.10;;
64903;SDS011;51401;48.882;12.598;2023-04-09T11:22:34;10.95;;;7.97;;
64903;SDS011;51401;48.882;12.598;2023-04-09T11:25:00;10.60;;;7.30;;
64903;SDS011;51401;48.882;12.598;2023-04-09T11:27:25;8.48;;;7.22;;
64903;SDS011;51401;48.882;12.598;2023-04-09T11:29:54;10.15;;;7.97;;
64903;SDS011;51401;48.882;12.598;2023-04-09T11:32:19;10.25;;;7.85;;
64903;SDS011;51401;48.882;12.598;2023-04-09T11:34:45;11.20;;;8.02;;
64903;SDS011;51401;48.882;12.598;2023-04-09T11:37:14;9.53;;;7.37;;
64903;SDS011;51401;48.882;12.598;2023-04-09T11:39:42;9.70;;;7.35;;
64903;SDS011;51401;48.882;12.598;2023-04-09T11:42:12;11.60;;;9.57;;
64903;SDS011;51401;48.882;12.598;2023-04-09T11:44:38;10.55;;;7.93;;
64903;SDS011;51401;48.882;12.598;2023-04-09T11:47:04;10.23;;;8.07;;
64903;SDS011;51401;48.882;12.598;2023-04-09T11:49:29;10.55;;;8.48;;
64903;SDS011;51401;48.882;12.598;2023-04-09T11:51:55;9.50;;;7.43;;
64903;SDS011;51401;48.882;12.598;2023-04-09T11:54:22;9.50;;;7.28;;
64903;SDS011;51401;48.882;12.598;2023-04-09T11:56:48;8.77;;;7.47;;
64903;SDS011;51401;48.882;12.598;2023-04-09T11:59:22;8.60;;;6.78;;
64903;SDS011;51401;48.882;12.598;2023-04-09T12:01:48;8.77;;;6.95;;
64903;SDS011;51401;48.882;12.598;2023-04-09T12:04:18;9.73;;;7.43;;
64903;SDS011;51401;48.882;12.598;2023-04-09T12:09:10;8.53;;;6.40;;
64903;SDS011;51401;48.882;12.598;2023-04-09T12:11:38;8.68;;;6.78;;
64903;SDS011;51401;48.882;12.598;2023-04-09T12:14:06;10.10;;;7.22;;
64903;SDS011;51401;48.882;12.598;2023-04-09T12:16:38;9.82;;;6.65;;
64903;SDS011;51401;48.882;12.598;2023-04-09T12:19:05;11.80;;;8.73;;
64903;SDS011;51401;48.882;12.598;2023-04-09T12:24:19;11.13;;;7.82;;
64903;SDS011;51401;48.882;12.598;2023-04-09T12:26:46;10.15;;;8.07;;
64903;SDS011;51401;48.882;12.598;2023-04-09T12:29:13;9.35;;;7.43;;
64903;SDS011;51401;48.882;12.598;2023-04-09T12:31:39;10.52;;;8.50;;
64903;SDS011;51401;48.882;12.598;2023-04-09T12:34:05;9.85;;;8.27;;
64903;SDS011;51401;48.882;12.598;2023-04-09T12:36:30;9.93;;;8.13;;
64903;SDS011;51401;48.882;12.598;2023-04-09T12:38:56;10.38;;;7.85;;
64903;SDS011;51401;48.882;12.598;2023-04-09T12:41:21;10.38;;;8.13;;
64903;SDS011;51401;48.882;12.598;2023-04-09T12:43:46;9.97;;;7.47;;
64903;SDS011;51401;48.882;12.598;2023-04-09T12:46:12;11.98;;;8.85;;
64903;SDS011;51401;48.882;12.598;2023-04-09T12:48:37;11.93;;;8.52;;
64903;SDS011;51401;48.882;12.598;2023-04-09T12:51:03;10.20;;;7.80;;
64903;SDS011;51401;48.882;12.598;2023-04-09T12:53:29;9.93;;;7.35;;
64903;SDS011;51401;48.882;12.598;2023-04-09T12:55:54;8.70;;;6.40;;
64903;SDS011;51401;48.882;12.598;2023-04-09T12:58:19;9.83;;;6.77;;
64903;SDS011;51401;48.882;12.598;2023-04-09T13:00:44;9.05;;;7.05;;
64903;SDS011;51401;48.882;12.598;2023-04-09T13:03:10;10.23;;;7.93;;
64903;SDS011;51401;48.882;12.598;2023-04-09T13:05:35;9.25;;;7.53;;
64903;SDS011;51401;48.882;12.598;2023-04-09T13:08:01;10.18;;;7.60;;
64903;SDS011;51401;48.882;12.598;2023-04-09T13:10:27;12.02;;;7.72;;
64903;SDS011;51401;48.882;12.598;2023-04-09T13:12:54;10.80;;;7.57;;
64903;SDS011;51401;48.882;12.598;2023-04-09T13:15:20;10.68;;;7.85;;
64903;SDS011;51401;48.882;12.598;2023-04-09T13:17:46;11.00;;;8.10;;
64903;SDS011;51401;48.882;12.598;2023-04-09T13:20:11;10.50;;;7.20;;
64903;SDS011;51401;48.882;12.598;2023-04-09T13:22:37;10.55;;;7.35;;
64903;SDS011;51401;48.882;12.598;2023-04-09T13:25:02;9.55;;;7.22;;
64903;SDS011;51401;48.882;12.598;2023-04-09T13:27:28;8.57;;;6.90;;
64903;SDS011;51401;48.882;12.598;2023-04-09T13:29:53;8.70;;;7.03;;
64903;SDS011;51401;48.882;12.598;2023-04-09T13:32:19;9.30;;;6.70;;
64903;SDS011;51401;48.882;12.598;2023-04-09T13:34:48;9.52;;;7.40;;
64903;SDS011;51401;48.882;12.598;2023-04-09T13:37:13;10.70;;;7.53;;
64903;SDS011;51401;48.882;12.598;2023-04-09T13:39:39;8.80;;;6.57;;
64903;SDS011;51401;48.882;12.598;2023-04-09T13:42:05;8.70;;;7.00;;
64903;SDS011;51401;48.882;12.598;2023-04-09T13:44:30;8.40;;;6.70;;
64903;SDS011;51401;48.882;12.598;2023-04-09T13:46:56;9.93;;;7.18;;
64903;SDS011;51401;48.882;12.598;2023-04-09T13:49:21;8.40;;;6.40;;
64903;SDS011;51401;48.882;12.598;2023-04-09T13:51:47;10.33;;;6.90;;
64903;SDS011;51401;48.882;12.598;2023-04-09T13:54:13;12.32;;;8.27;;
64903;SDS011;51401;48.882;12.598;2023-04-09T13:56:38;11.77;;;7.80;;
64903;SDS011;51401;48.882;12.598;2023-04-09T13:59:04;11.07;;;7.30;;
64903;SDS011;51401;48.882;12.598;2023-04-09T14:01:30;9.23;;;6.70;;
64903;SDS011;51401;48.882;12.598;2023-04-09T14:03:55;9.60;;;6.75;;
64903;SDS011;51401;48.882;12.598;2023-04-09T14:06:20;9.25;;;6.93;;
64903;SDS011;51401;48.882;12.598;2023-04-09T14:08:46;9.40;;;6.40;;
64903;SDS011;51401;48.882;12.598;2023-04-09T14:11:12;7.93;;;6.43;;
64903;SDS011;51401;48.882;12.598;2023-04-09T14:13:39;9.77;;;7.10;;
64903;SDS011;51401;48.882;12.598;2023-04-09T14:16:05;8.35;;;6.47;;
64903;SDS011;51401;48.882;12.598;2023-04-09T14:18:31;8.85;;;6.32;;
64903;SDS011;51401;48.882;12.598;2023-04-09T14:20:57;9.73;;;7.07;;
64903;SDS011;51401;48.882;12.598;2023-04-09T14:23:25;10.43;;;7.18;;
64903;SDS011;51401;48.882;12.598;2023-04-09T14:25:51;9.07;;;6.82;;
64903;SDS011;51401;48.882;12.598;2023-04-09T14:28:17;11.05;;;7.50;;
64903;SDS011;51401;48.882;12.598;2023-04-09T14:30:43;11.73;;;7.70;;
64903;SDS011;51401;48.882;12.598;2023-04-09T14:33:08;9.50;;;6.83;;
64903;SDS011;51401;48.882;12.598;2023-04-09T14:35:36;11.75;;;8.05;;
64903;SDS011;51401;48.882;12.598;2023-04-09T14:38:02;9.65;;;7.00;;
64903;SDS011;51401;48.882;12.598;2023-04-09T14:40:30;10.90;;;7.50;;
64903;SDS011;51401;48.882;12.598;2023-04-09T14:42:56;9.80;;;7.22;;
64903;SDS011;51401;48.882;12.598;2023-04-09T14:45:25;10.90;;;7.57;;
64903;SDS011;51401;48.882;12.598;2023-04-09T14:47:50;11.07;;;7.80;;
64903;SDS011;51401;48.882;12.598;2023-04-09T14:50:15;10.23;;;7.60;;
64903;SDS011;51401;48.882;12.598;2023-04-09T14:52:41;11.40;;;7.63;;
64903;SDS011;51401;48.882;12.598;2023-04-09T14:55:06;9.77;;;7.78;;